Vega Desgagnes — VOCQ — position and weather

sailwx.info

Track history (hours):
 
Tides and Currents Weather Stations Pressure Air Temp Water Temp Dewpoint Dewpoint Depression Visibility Wind Speed Wind Dir Waves Ship Positions

Vega Desgagnes

Last reported at 2014-Aug-27 14:31 UTC. Time now 2014-Aug-27 15:11 UTC.
Position N 45°37' W 073°30'.

Length 141 m; draft 7 m.

Type: Tanker. MMSI: 316003770.

Date/timePositionNaut miles runAvg speedWind from/ knotsBaromVisibWave heightAir tempDewpointWater temp
2014-Aug-27 14:31N 45°37' W 073°30'0 0.0
2014-Aug-27 13:31N 45°37' W 073°30'0 0.0
2014-Aug-27 12:31N 45°37' W 073°30'0 0.0
2014-Aug-27 11:31N 45°37' W 073°30'0 0.0
2014-Aug-27 10:31N 45°37' W 073°30'0 0.0
2014-Aug-27 09:31N 45°37' W 073°30'0 0.0
2014-Aug-27 08:31N 45°37' W 073°30'0 0.0
2014-Aug-27 07:31N 45°37' W 073°30'0 0.0
2014-Aug-27 06:31N 45°37' W 073°30'0 0.0
2014-Aug-27 05:31N 45°37' W 073°30'0 0.0
2014-Aug-27 04:31N 45°37' W 073°30'0 0.0
2014-Aug-27 03:31N 45°37' W 073°30'0 0.0
2014-Aug-27 02:31N 45°37' W 073°30'0 0.0
2014-Aug-27 01:31N 45°37' W 073°30'0 0.0
2014-Aug-27 00:31N 45°37' W 073°30'0 0.0
2014-Aug-26 23:31N 45°37' W 073°30'0 0.0
2014-Aug-26 22:31N 45°37' W 073°30'0 0.0
2014-Aug-26 21:31N 45°37' W 073°30'0 0.0
2014-Aug-26 20:31N 45°37' W 073°30'0 0.0
2014-Aug-26 19:31N 45°37' W 073°30'0 0.0
2014-Aug-26 18:31N 45°37' W 073°30'0 0.0
2014-Aug-26 17:31N 45°37' W 073°30'0 0.0
2014-Aug-26 16:28N 45°37' W 073°30'0 0.4
2014-Aug-26 15:33N 45°37' W 073°30'1 1.4
2014-Aug-26 14:32N 45°38' W 073°29'0 0.0
2014-Aug-26 13:33N 45°38' W 073°29'3 3.2
2014-Aug-26 12:33N 45°41' W 073°27'1110.6
2014-Aug-26 11:33N 45°50' W 073°18'1110.6
2014-Aug-26 10:33N 45°59' W 073°11'1010.0
2014-Aug-26 09:33N 46°05' W 072°60'1210.7
2014-Aug-26 08:24N 46°14' W 072°47'911.3
2014-Aug-26 07:33N 46°18' W 072°35'9 9.2
2014-Aug-26 06:33N 46°24' W 072°24'1010.2
2014-Aug-26 05:34N 46°31' W 072°13'10 9.8
2014-Aug-26 04:33N 46°35' W 072°01'10 9.2
2014-Aug-26 03:30N 46°40' W 071°48'1010.8
2014-Aug-26 02:33N 46°41' W 071°33'1110.9
2014-Aug-26 01:33N 46°45' W 071°18'5 4.9
2014-Aug-26 00:33N 46°48' W 071°13'0 0.0
2014-Aug-25 23:33N 46°48' W 071°13'0 0.0
2014-Aug-25 22:33N 46°48' W 071°13'0 0.0
2014-Aug-25 21:33N 46°48' W 071°13'0 0.0
2014-Aug-25 20:33N 46°48' W 071°13'0 0.0
2014-Aug-25 19:33N 46°48' W 071°13'0 0.0
2014-Aug-25 18:33N 46°48' W 071°13'0 0.0
2014-Aug-25 17:27N 46°48' W 071°13'0 0.0
2014-Aug-25 16:33N 46°48' W 071°13'0 0.0
2014-Aug-25 15:33N 46°48' W 071°13'0 0.0
2014-Aug-25 14:33N 46°48' W 071°13'0 0.0
2014-Aug-25 13:33N 46°48' W 071°13'0 0.0
2014-Aug-25 12:33N 46°48' W 071°13'0 0.0
2014-Aug-25 11:33N 46°48' W 071°13'0 0.0
2014-Aug-25 10:33N 46°48' W 071°13'0 0.0
2014-Aug-25 09:33N 46°48' W 071°13'0 0.0
2014-Aug-25 08:33N 46°48' W 071°13'0 0.0
2014-Aug-25 07:33N 46°48' W 071°13'0 0.0
2014-Aug-25 06:33N 46°48' W 071°13'0 0.0
2014-Aug-25 05:33N 46°48' W 071°13'0 0.0
2014-Aug-25 04:33N 46°48' W 071°13'0 0.0
2014-Aug-25 03:33N 46°48' W 071°13'0 0.0
2014-Aug-25 02:33N 46°48' W 071°13'0 0.0
2014-Aug-25 01:33N 46°48' W 071°13'0 0.0
2014-Aug-25 00:33N 46°48' W 071°13'0 0.0
2014-Aug-24 23:33N 46°48' W 071°13'0 0.0
2014-Aug-24 22:33N 46°48' W 071°13'0 0.0
2014-Aug-24 21:33N 46°48' W 071°13'0 0.0
2014-Aug-24 20:33N 46°48' W 071°13'0 0.0
2014-Aug-24 19:33N 46°48' W 071°13'0 0.0
2014-Aug-24 18:33N 46°48' W 071°13'0 0.0
2014-Aug-24 17:33N 46°48' W 071°13'0 0.0
2014-Aug-24 16:33N 46°48' W 071°13'0 0.0
2014-Aug-24 15:33N 46°48' W 071°13'0 0.0
2014-Aug-24 14:33N 46°48' W 071°13'0 0.0
2014-Aug-24 13:33N 46°48' W 071°13'0 0.0
2014-Aug-24 12:33N 46°48' W 071°13'0 0.0
2014-Aug-24 11:33N 46°48' W 071°13'0 0.0
2014-Aug-24 10:33N 46°48' W 071°13'0 0.0
2014-Aug-24 09:33N 46°48' W 071°13'0 0.0
2014-Aug-24 08:33N 46°48' W 071°13'0 0.0
2014-Aug-24 07:33N 46°48' W 071°13'0 0.0
2014-Aug-24 06:33N 46°48' W 071°13'0 0.0
2014-Aug-24 05:33N 46°48' W 071°13'0 0.0
2014-Aug-24 04:33N 46°48' W 071°13'0 0.0
2014-Aug-24 03:33N 46°48' W 071°13'0 0.0
2014-Aug-24 02:33N 46°48' W 071°13'0 0.0
2014-Aug-24 01:33N 46°48' W 071°13'0 0.0
2014-Aug-24 00:33N 46°48' W 071°13'0 0.0
2014-Aug-23 23:33N 46°48' W 071°13'0 0.0
2014-Aug-23 22:33N 46°48' W 071°13'0 0.0
2014-Aug-23 21:33N 46°48' W 071°13'0 0.0
2014-Aug-23 20:33N 46°48' W 071°13'0 0.0
2014-Aug-23 19:33N 46°48' W 071°13'0 0.0
2014-Aug-23 03:33N 46°48' W 071°13'0 0.0
2014-Aug-23 02:33N 46°48' W 071°13'0 0.0
2014-Aug-23 01:33N 46°48' W 071°13'0 0.0
2014-Aug-23 00:33N 46°48' W 071°13'0 0.0
2014-Aug-22 23:27N 46°48' W 071°13'0 0.0
2014-Aug-22 22:33N 46°48' W 071°13'0 0.0
2014-Aug-22 21:33N 46°48' W 071°13'0 0.0
2014-Aug-22 20:15N 46°48' W 071°13'0 0.0
2014-Aug-22 18:15N 46°48' W 071°13'0 0.0
2014-Aug-22 12:15N 46°48' W 071°13'0 0.0
2014-Aug-22 11:09N 46°48' W 071°13'0 0.0
2014-Aug-22 07:09N 46°48' W 071°13'0 0.0
2014-Aug-22 06:15N 46°48' W 071°13'0 0.0
2014-Aug-22 05:30N 46°48' W 071°13'0 0.0
2014-Aug-22 04:33N 46°48' W 071°13'0 0.0
2014-Aug-22 03:27N 46°48' W 071°13'0 0.0
2014-Aug-21 21:33N 46°48' W 071°13'0 0.0
2014-Aug-21 20:33N 46°48' W 071°13'0 0.0
2014-Aug-21 19:33N 46°48' W 071°13'0 0.0
2014-Aug-21 18:33N 46°48' W 071°13'0 0.0
2014-Aug-21 17:33N 46°48' W 071°13'0 0.0
2014-Aug-21 16:33N 46°48' W 071°13'0 0.0
2014-Aug-21 15:33N 46°48' W 071°13'0 0.0
2014-Aug-21 14:33N 46°48' W 071°13'0 0.0
2014-Aug-21 13:33N 46°48' W 071°13'0 0.0
2014-Aug-21 12:33N 46°48' W 071°13'0 0.0
2014-Aug-21 11:33N 46°48' W 071°13'0 0.0
2014-Aug-21 10:33N 46°48' W 071°13'0 0.0
2014-Aug-21 09:33N 46°48' W 071°13'0 0.0
2014-Aug-21 08:33N 46°48' W 071°13'0 0.0
2014-Aug-21 07:33N 46°48' W 071°13'0 0.0
2014-Aug-21 06:33N 46°48' W 071°13'0 0.0
2014-Aug-21 05:33N 46°48' W 071°13'0 0.0
2014-Aug-21 04:33N 46°48' W 071°13'0 0.0
2014-Aug-21 03:33N 46°48' W 071°13'0 0.0
2014-Aug-21 02:33N 46°48' W 071°13'0 0.0
2014-Aug-21 01:33N 46°48' W 071°13'0 0.0
2014-Aug-21 00:33N 46°48' W 071°13'0 0.0
2014-Aug-20 23:33N 46°48' W 071°13'0 0.0
2014-Aug-20 22:33N 46°48' W 071°13'0 0.0
2014-Aug-20 21:33N 46°48' W 071°13'0 0.0
2014-Aug-20 20:33N 46°48' W 071°13'0 0.0
2014-Aug-20 19:33N 46°48' W 071°13'0 0.0
2014-Aug-20 18:33N 46°48' W 071°13'0 0.0
2014-Aug-20 17:33N 46°48' W 071°13'0 0.0
2014-Aug-20 16:21N 46°48' W 071°13'0 0.0
2014-Aug-20 15:33N 46°48' W 071°13'0 0.0
2014-Aug-20 14:33N 46°48' W 071°13'0 0.0
2014-Aug-20 13:33N 46°48' W 071°13'0 0.0
2014-Aug-20 12:33N 46°48' W 071°13'0 0.0
2014-Aug-20 11:33N 46°48' W 071°13'0 0.0
2014-Aug-20 10:33N 46°48' W 071°13'0 0.0
2014-Aug-20 09:33N 46°48' W 071°13'0 0.0
2014-Aug-20 08:33N 46°48' W 071°13'0 0.0
2014-Aug-20 07:33N 46°48' W 071°13'0 0.0
2014-Aug-20 06:33N 46°48' W 071°13'0 0.0
2014-Aug-20 05:33N 46°48' W 071°13'0 0.0
2014-Aug-20 04:33N 46°48' W 071°13'0 0.0
2014-Aug-20 03:33N 46°48' W 071°13'0 0.0
2014-Aug-20 02:33N 46°48' W 071°13'0 0.0
2014-Aug-20 01:33N 46°48' W 071°13'0 0.0
2014-Aug-20 00:21N 46°48' W 071°13'0 0.0
2014-Aug-19 23:33N 46°48' W 071°13'0 0.0
2014-Aug-19 22:33N 46°48' W 071°13'0 0.0
2014-Aug-19 21:27N 46°48' W 071°13'0 0.0
2014-Aug-19 20:33N 46°48' W 071°13'0 0.0
2014-Aug-19 19:33N 46°48' W 071°13'0 0.1
2014-Aug-19 17:18N 46°48' W 071°13'0 0.0
2014-Aug-19 16:33N 46°48' W 071°13'0 0.0
2014-Aug-19 15:33N 46°48' W 071°13'0 0.0
2014-Aug-19 14:15N 46°48' W 071°13'0 0.0
2014-Aug-19 13:21N 46°48' W 071°13'0 0.0
2014-Aug-19 12:33N 46°48' W 071°13'0 0.0
2014-Aug-19 11:33N 46°48' W 071°13'0 0.0
2014-Aug-19 10:33N 46°48' W 071°13'0 0.0
2014-Aug-19 09:33N 46°48' W 071°13'0 0.0
2014-Aug-19 08:30N 46°48' W 071°13'0 0.0
2014-Aug-19 07:33N 46°48' W 071°13'0 0.0
2014-Aug-19 06:33N 46°48' W 071°13'0 0.0
2014-Aug-19 05:33N 46°48' W 071°13'0 0.0
2014-Aug-19 04:33N 46°48' W 071°13'0 0.0
2014-Aug-19 03:33N 46°48' W 071°13'0 0.0
2014-Aug-19 02:33N 46°48' W 071°13'0 0.0
2014-Aug-19 01:33N 46°48' W 071°13'0 0.0
2014-Aug-19 00:33N 46°48' W 071°13'0 0.0
2014-Aug-18 23:33N 46°48' W 071°13'0 0.0
2014-Aug-18 22:33N 46°48' W 071°13'0 0.0
2014-Aug-18 21:33N 46°48' W 071°13'0 0.0
2014-Aug-18 20:33N 46°48' W 071°13'0 0.0
2014-Aug-18 19:33N 46°48' W 071°13'0 0.0
2014-Aug-18 18:33N 46°48' W 071°13'0 0.0
2014-Aug-18 17:27N 46°48' W 071°13'0 0.0
2014-Aug-18 16:33N 46°48' W 071°13'0 0.0
2014-Aug-18 15:33N 46°48' W 071°13'0 0.0
2014-Aug-18 14:33N 46°48' W 071°13'0 0.0
2014-Aug-18 13:33N 46°48' W 071°13'0 0.0
2014-Aug-18 12:33N 46°48' W 071°13'0 0.0
2014-Aug-18 11:33N 46°48' W 071°13'0 0.0
2014-Aug-18 10:33N 46°48' W 071°13'0 0.0
2014-Aug-18 09:27N 46°48' W 071°13'0 0.0
2014-Aug-18 08:33N 46°48' W 071°13'0 0.0
2014-Aug-18 07:33N 46°48' W 071°13'0 0.0
2014-Aug-18 06:33N 46°48' W 071°13'0 0.0
2014-Aug-18 05:33N 46°48' W 071°13'0 0.0
2014-Aug-18 04:33N 46°48' W 071°13'0 0.0
2014-Aug-18 03:33N 46°48' W 071°13'0 0.0
2014-Aug-18 02:33N 46°48' W 071°13'0 0.0
2014-Aug-18 01:33N 46°48' W 071°13'0 0.0
2014-Aug-18 00:33N 46°48' W 071°13'0 0.0
2014-Aug-17 18:33N 46°48' W 071°13'0 0.0
2014-Aug-17 17:33N 46°48' W 071°13'0 0.0
2014-Aug-17 16:33N 46°48' W 071°13'0 0.0
2014-Aug-17 15:33N 46°48' W 071°13'0 0.0
2014-Aug-17 14:33N 46°48' W 071°13'  
Track history (hours):
 
Tides and Currents Weather Stations Pressure Air Temp Water Temp Dewpoint Dewpoint Depression Visibility Wind Speed Wind Dir Waves Ship Positions

Vega Desgagnes

Last reported at 2014-Aug-27 14:31 UTC. Time now 2014-Aug-27 15:11 UTC.
Position N 45°37' W 073°30'.

Length 141 m; draft 7 m.

Type: Tanker. MMSI: 316003770.

Date/timePositionNaut miles runAvg speedWind from/ knotsBaromVisibWave heightAir tempDewpointWater temp
2014-Aug-27 14:31N 45°37' W 073°30'0 0.0
2014-Aug-27 13:31N 45°37' W 073°30'0 0.0
2014-Aug-27 12:31N 45°37' W 073°30'0 0.0
2014-Aug-27 11:31N 45°37' W 073°30'0 0.0
2014-Aug-27 10:31N 45°37' W 073°30'0 0.0
2014-Aug-27 09:31N 45°37' W 073°30'0 0.0
2014-Aug-27 08:31N 45°37' W 073°30'0 0.0
2014-Aug-27 07:31N 45°37' W 073°30'0 0.0
2014-Aug-27 06:31N 45°37' W 073°30'0 0.0
2014-Aug-27 05:31N 45°37' W 073°30'0 0.0
2014-Aug-27 04:31N 45°37' W 073°30'0 0.0
2014-Aug-27 03:31N 45°37' W 073°30'0 0.0
2014-Aug-27 02:31N 45°37' W 073°30'0 0.0
2014-Aug-27 01:31N 45°37' W 073°30'0 0.0
2014-Aug-27 00:31N 45°37' W 073°30'0 0.0
2014-Aug-26 23:31N 45°37' W 073°30'0 0.0
2014-Aug-26 22:31N 45°37' W 073°30'0 0.0
2014-Aug-26 21:31N 45°37' W 073°30'0 0.0
2014-Aug-26 20:31N 45°37' W 073°30'0 0.0
2014-Aug-26 19:31N 45°37' W 073°30'0 0.0
2014-Aug-26 18:31N 45°37' W 073°30'0 0.0
2014-Aug-26 17:31N 45°37' W 073°30'0 0.0
2014-Aug-26 16:28N 45°37' W 073°30'0 0.4
2014-Aug-26 15:33N 45°37' W 073°30'1 1.4
2014-Aug-26 14:32N 45°38' W 073°29'0 0.0
2014-Aug-26 13:33N 45°38' W 073°29'3 3.2
2014-Aug-26 12:33N 45°41' W 073°27'1110.6
2014-Aug-26 11:33N 45°50' W 073°18'1110.6
2014-Aug-26 10:33N 45°59' W 073°11'1010.0
2014-Aug-26 09:33N 46°05' W 072°60'1210.7
2014-Aug-26 08:24N 46°14' W 072°47'911.3
2014-Aug-26 07:33N 46°18' W 072°35'9 9.2
2014-Aug-26 06:33N 46°24' W 072°24'1010.2
2014-Aug-26 05:34N 46°31' W 072°13'10 9.8
2014-Aug-26 04:33N 46°35' W 072°01'10 9.2
2014-Aug-26 03:30N 46°40' W 071°48'1010.8
2014-Aug-26 02:33N 46°41' W 071°33'1110.9
2014-Aug-26 01:33N 46°45' W 071°18'5 4.9
2014-Aug-26 00:33N 46°48' W 071°13'0 0.0
2014-Aug-25 23:33N 46°48' W 071°13'0 0.0
2014-Aug-25 22:33N 46°48' W 071°13'0 0.0
2014-Aug-25 21:33N 46°48' W 071°13'0 0.0
2014-Aug-25 20:33N 46°48' W 071°13'0 0.0
2014-Aug-25 19:33N 46°48' W 071°13'0 0.0
2014-Aug-25 18:33N 46°48' W 071°13'0 0.0
2014-Aug-25 17:27N 46°48' W 071°13'0 0.0
2014-Aug-25 16:33N 46°48' W 071°13'0 0.0
2014-Aug-25 15:33N 46°48' W 071°13'0 0.0
2014-Aug-25 14:33N 46°48' W 071°13'0 0.0
2014-Aug-25 13:33N 46°48' W 071°13'0 0.0
2014-Aug-25 12:33N 46°48' W 071°13'0 0.0
2014-Aug-25 11:33N 46°48' W 071°13'0 0.0
2014-Aug-25 10:33N 46°48' W 071°13'0 0.0
2014-Aug-25 09:33N 46°48' W 071°13'0 0.0
2014-Aug-25 08:33N 46°48' W 071°13'0 0.0
2014-Aug-25 07:33N 46°48' W 071°13'0 0.0
2014-Aug-25 06:33N 46°48' W 071°13'0 0.0
2014-Aug-25 05:33N 46°48' W 071°13'0 0.0
2014-Aug-25 04:33N 46°48' W 071°13'0 0.0
2014-Aug-25 03:33N 46°48' W 071°13'0 0.0
2014-Aug-25 02:33N 46°48' W 071°13'0 0.0
2014-Aug-25 01:33N 46°48' W 071°13'0 0.0
2014-Aug-25 00:33N 46°48' W 071°13'0 0.0
2014-Aug-24 23:33N 46°48' W 071°13'0 0.0
2014-Aug-24 22:33N 46°48' W 071°13'0 0.0
2014-Aug-24 21:33N 46°48' W 071°13'0 0.0
2014-Aug-24 20:33N 46°48' W 071°13'0 0.0
2014-Aug-24 19:33N 46°48' W 071°13'0 0.0
2014-Aug-24 18:33N 46°48' W 071°13'0 0.0
2014-Aug-24 17:33N 46°48' W 071°13'0 0.0
2014-Aug-24 16:33N 46°48' W 071°13'0 0.0
2014-Aug-24 15:33N 46°48' W 071°13'0 0.0
2014-Aug-24 14:33N 46°48' W 071°13'0 0.0
2014-Aug-24 13:33N 46°48' W 071°13'0 0.0
2014-Aug-24 12:33N 46°48' W 071°13'0 0.0
2014-Aug-24 11:33N 46°48' W 071°13'0 0.0
2014-Aug-24 10:33N 46°48' W 071°13'0 0.0
2014-Aug-24 09:33N 46°48' W 071°13'0 0.0
2014-Aug-24 08:33N 46°48' W 071°13'0 0.0
2014-Aug-24 07:33N 46°48' W 071°13'0 0.0
2014-Aug-24 06:33N 46°48' W 071°13'0 0.0
2014-Aug-24 05:33N 46°48' W 071°13'0 0.0
2014-Aug-24 04:33N 46°48' W 071°13'0 0.0
2014-Aug-24 03:33N 46°48' W 071°13'0 0.0
2014-Aug-24 02:33N 46°48' W 071°13'0 0.0
2014-Aug-24 01:33N 46°48' W 071°13'0 0.0
2014-Aug-24 00:33N 46°48' W 071°13'0 0.0
2014-Aug-23 23:33N 46°48' W 071°13'0 0.0
2014-Aug-23 22:33N 46°48' W 071°13'0 0.0
2014-Aug-23 21:33N 46°48' W 071°13'0 0.0
2014-Aug-23 20:33N 46°48' W 071°13'0 0.0
2014-Aug-23 19:33N 46°48' W 071°13'0 0.0
2014-Aug-23 03:33N 46°48' W 071°13'0 0.0
2014-Aug-23 02:33N 46°48' W 071°13'0 0.0
2014-Aug-23 01:33N 46°48' W 071°13'0 0.0
2014-Aug-23 00:33N 46°48' W 071°13'0 0.0
2014-Aug-22 23:27N 46°48' W 071°13'0 0.0
2014-Aug-22 22:33N 46°48' W 071°13'0 0.0
2014-Aug-22 21:33N 46°48' W 071°13'0 0.0
2014-Aug-22 20:15N 46°48' W 071°13'0 0.0
2014-Aug-22 18:15N 46°48' W 071°13'0 0.0
2014-Aug-22 12:15N 46°48' W 071°13'0 0.0
2014-Aug-22 11:09N 46°48' W 071°13'0 0.0
2014-Aug-22 07:09N 46°48' W 071°13'0 0.0
2014-Aug-22 06:15N 46°48' W 071°13'0 0.0
2014-Aug-22 05:30N 46°48' W 071°13'0 0.0
2014-Aug-22 04:33N 46°48' W 071°13'0 0.0
2014-Aug-22 03:27N 46°48' W 071°13'0 0.0
2014-Aug-21 21:33N 46°48' W 071°13'0 0.0
2014-Aug-21 20:33N 46°48' W 071°13'0 0.0
2014-Aug-21 19:33N 46°48' W 071°13'0 0.0
2014-Aug-21 18:33N 46°48' W 071°13'0 0.0
2014-Aug-21 17:33N 46°48' W 071°13'0 0.0
2014-Aug-21 16:33N 46°48' W 071°13'0 0.0
2014-Aug-21 15:33N 46°48' W 071°13'0 0.0
2014-Aug-21 14:33N 46°48' W 071°13'0 0.0
2014-Aug-21 13:33N 46°48' W 071°13'0 0.0
2014-Aug-21 12:33N 46°48' W 071°13'0 0.0
2014-Aug-21 11:33N 46°48' W 071°13'0 0.0
2014-Aug-21 10:33N 46°48' W 071°13'0 0.0
2014-Aug-21 09:33N 46°48' W 071°13'0 0.0
2014-Aug-21 08:33N 46°48' W 071°13'0 0.0
2014-Aug-21 07:33N 46°48' W 071°13'0 0.0
2014-Aug-21 06:33N 46°48' W 071°13'0 0.0
2014-Aug-21 05:33N 46°48' W 071°13'0 0.0
2014-Aug-21 04:33N 46°48' W 071°13'0 0.0
2014-Aug-21 03:33N 46°48' W 071°13'0 0.0
2014-Aug-21 02:33N 46°48' W 071°13'0 0.0
2014-Aug-21 01:33N 46°48' W 071°13'0 0.0
2014-Aug-21 00:33N 46°48' W 071°13'0 0.0
2014-Aug-20 23:33N 46°48' W 071°13'0 0.0
2014-Aug-20 22:33N 46°48' W 071°13'0 0.0
2014-Aug-20 21:33N 46°48' W 071°13'0 0.0
2014-Aug-20 20:33N 46°48' W 071°13'0 0.0
2014-Aug-20 19:33N 46°48' W 071°13'0 0.0
2014-Aug-20 18:33N 46°48' W 071°13'0 0.0
2014-Aug-20 17:33N 46°48' W 071°13'0 0.0
2014-Aug-20 16:21N 46°48' W 071°13'0 0.0
2014-Aug-20 15:33N 46°48' W 071°13'0 0.0
2014-Aug-20 14:33N 46°48' W 071°13'0 0.0
2014-Aug-20 13:33N 46°48' W 071°13'0 0.0
2014-Aug-20 12:33N 46°48' W 071°13'0 0.0
2014-Aug-20 11:33N 46°48' W 071°13'0 0.0
2014-Aug-20 10:33N 46°48' W 071°13'0 0.0
2014-Aug-20 09:33N 46°48' W 071°13'0 0.0
2014-Aug-20 08:33N 46°48' W 071°13'0 0.0
2014-Aug-20 07:33N 46°48' W 071°13'0 0.0
2014-Aug-20 06:33N 46°48' W 071°13'0 0.0
2014-Aug-20 05:33N 46°48' W 071°13'0 0.0
2014-Aug-20 04:33N 46°48' W 071°13'0 0.0
2014-Aug-20 03:33N 46°48' W 071°13'0 0.0
2014-Aug-20 02:33N 46°48' W 071°13'0 0.0
2014-Aug-20 01:33N 46°48' W 071°13'0 0.0
2014-Aug-20 00:21N 46°48' W 071°13'0 0.0
2014-Aug-19 23:33N 46°48' W 071°13'0 0.0
2014-Aug-19 22:33N 46°48' W 071°13'0 0.0
2014-Aug-19 21:27N 46°48' W 071°13'0 0.0
2014-Aug-19 20:33N 46°48' W 071°13'0 0.0
2014-Aug-19 19:33N 46°48' W 071°13'0 0.1
2014-Aug-19 17:18N 46°48' W 071°13'0 0.0
2014-Aug-19 16:33N 46°48' W 071°13'0 0.0
2014-Aug-19 15:33N 46°48' W 071°13'0 0.0
2014-Aug-19 14:15N 46°48' W 071°13'0 0.0
2014-Aug-19 13:21N 46°48' W 071°13'0 0.0
2014-Aug-19 12:33N 46°48' W 071°13'0 0.0
2014-Aug-19 11:33N 46°48' W 071°13'0 0.0
2014-Aug-19 10:33N 46°48' W 071°13'0 0.0
2014-Aug-19 09:33N 46°48' W 071°13'0 0.0
2014-Aug-19 08:30N 46°48' W 071°13'0 0.0
2014-Aug-19 07:33N 46°48' W 071°13'0 0.0
2014-Aug-19 06:33N 46°48' W 071°13'0 0.0
2014-Aug-19 05:33N 46°48' W 071°13'0 0.0
2014-Aug-19 04:33N 46°48' W 071°13'0 0.0
2014-Aug-19 03:33N 46°48' W 071°13'0 0.0
2014-Aug-19 02:33N 46°48' W 071°13'0 0.0
2014-Aug-19 01:33N 46°48' W 071°13'0 0.0
2014-Aug-19 00:33N 46°48' W 071°13'0 0.0
2014-Aug-18 23:33N 46°48' W 071°13'0 0.0
2014-Aug-18 22:33N 46°48' W 071°13'0 0.0
2014-Aug-18 21:33N 46°48' W 071°13'0 0.0
2014-Aug-18 20:33N 46°48' W 071°13'0 0.0
2014-Aug-18 19:33N 46°48' W 071°13'0 0.0
2014-Aug-18 18:33N 46°48' W 071°13'0 0.0
2014-Aug-18 17:27N 46°48' W 071°13'0 0.0
2014-Aug-18 16:33N 46°48' W 071°13'0 0.0
2014-Aug-18 15:33N 46°48' W 071°13'0 0.0
2014-Aug-18 14:33N 46°48' W 071°13'0 0.0
2014-Aug-18 13:33N 46°48' W 071°13'0 0.0
2014-Aug-18 12:33N 46°48' W 071°13'0 0.0
2014-Aug-18 11:33N 46°48' W 071°13'0 0.0
2014-Aug-18 10:33N 46°48' W 071°13'0 0.0
2014-Aug-18 09:27N 46°48' W 071°13'0 0.0
2014-Aug-18 08:33N 46°48' W 071°13'0 0.0
2014-Aug-18 07:33N 46°48' W 071°13'0 0.0
2014-Aug-18 06:33N 46°48' W 071°13'0 0.0
2014-Aug-18 05:33N 46°48' W 071°13'0 0.0
2014-Aug-18 04:33N 46°48' W 071°13'0 0.0
2014-Aug-18 03:33N 46°48' W 071°13'0 0.0
2014-Aug-18 02:33N 46°48' W 071°13'0 0.0
2014-Aug-18 01:33N 46°48' W 071°13'0 0.0
2014-Aug-18 00:33N 46°48' W 071°13'0 0.0
2014-Aug-17 18:33N 46°48' W 071°13'0 0.0
2014-Aug-17 17:33N 46°48' W 071°13'0 0.0
2014-Aug-17 16:33N 46°48' W 071°13'0 0.0
2014-Aug-17 15:33N 46°48' W 071°13'0 0.0
2014-Aug-17 14:33N 46°48' W 071°13'  

Dump ship's entire track history